sensor_id;sensor_type;location;lat;lon;timestamp;P1;durP1;ratioP1;P2;durP2;ratioP2
32186;SDS011;18686;53.084;8.872;2023-04-25T00:01:03;83.35;;;19.75;;
32186;SDS011;18686;53.084;8.872;2023-04-25T00:03:32;81.50;;;19.67;;
32186;SDS011;18686;53.084;8.872;2023-04-25T00:06:02;84.72;;;19.42;;
32186;SDS011;18686;53.084;8.872;2023-04-25T00:08:30;88.28;;;19.38;;
32186;SDS011;18686;53.084;8.872;2023-04-25T00:11:00;77.35;;;17.58;;
32186;SDS011;18686;53.084;8.872;2023-04-25T00:13:28;88.03;;;17.88;;
32186;SDS011;18686;53.084;8.872;2023-04-25T00:15:56;89.32;;;18.38;;
32186;SDS011;18686;53.084;8.872;2023-04-25T00:18:24;86.63;;;18.58;;
32186;SDS011;18686;53.084;8.872;2023-04-25T00:20:55;83.60;;;17.38;;
32186;SDS011;18686;53.084;8.872;2023-04-25T00:23:23;86.40;;;18.95;;
32186;SDS011;18686;53.084;8.872;2023-04-25T00:25:51;96.20;;;19.08;;
32186;SDS011;18686;53.084;8.872;2023-04-25T00:28:20;83.38;;;16.88;;
32186;SDS011;18686;53.084;8.872;2023-04-25T00:30:49;104.93;;;19.42;;
32186;SDS011;18686;53.084;8.872;2023-04-25T00:33:17;107.22;;;18.40;;
32186;SDS011;18686;53.084;8.872;2023-04-25T00:35:46;88.65;;;18.10;;
32186;SDS011;18686;53.084;8.872;2023-04-25T00:38:14;100.72;;;18.02;;
32186;SDS011;18686;53.084;8.872;2023-04-25T00:40:42;83.45;;;16.67;;
32186;SDS011;18686;53.084;8.872;2023-04-25T00:43:11;94.22;;;17.17;;
32186;SDS011;18686;53.084;8.872;2023-04-25T00:45:40;78.15;;;16.48;;
32186;SDS011;18686;53.084;8.872;2023-04-25T00:48:11;82.95;;;17.08;;
32186;SDS011;18686;53.084;8.872;2023-04-25T00:50:41;88.55;;;18.13;;
32186;SDS011;18686;53.084;8.872;2023-04-25T00:53:10;84.70;;;17.17;;
32186;SDS011;18686;53.084;8.872;2023-04-25T00:55:38;97.28;;;17.48;;
32186;SDS011;18686;53.084;8.872;2023-04-25T00:58:06;84.32;;;16.98;;
32186;SDS011;18686;53.084;8.872;2023-04-25T01:00:37;86.90;;;16.50;;
32186;SDS011;18686;53.084;8.872;2023-04-25T01:03:06;94.45;;;17.15;;
32186;SDS011;18686;53.084;8.872;2023-04-25T01:05:36;104.63;;;22.60;;
32186;SDS011;18686;53.084;8.872;2023-04-25T01:08:04;80.82;;;22.27;;
32186;SDS011;18686;53.084;8.872;2023-04-25T01:10:32;79.55;;;18.77;;
32186;SDS011;18686;53.084;8.872;2023-04-25T01:13:00;88.70;;;17.73;;
32186;SDS011;18686;53.084;8.872;2023-04-25T01:15:29;82.38;;;16.05;;
32186;SDS011;18686;53.084;8.872;2023-04-25T01:17:58;81.10;;;17.05;;
32186;SDS011;18686;53.084;8.872;2023-04-25T01:20:28;74.50;;;15.85;;
32186;SDS011;18686;53.084;8.872;2023-04-25T01:23:00;81.40;;;15.93;;
32186;SDS011;18686;53.084;8.872;2023-04-25T01:25:30;66.38;;;14.80;;
32186;SDS011;18686;53.084;8.872;2023-04-25T01:27:58;70.55;;;15.90;;
32186;SDS011;18686;53.084;8.872;2023-04-25T01:30:27;79.18;;;15.77;;
32186;SDS011;18686;53.084;8.872;2023-04-25T01:32:56;74.35;;;15.45;;
32186;SDS011;18686;53.084;8.872;2023-04-25T01:35:27;72.60;;;14.18;;
32186;SDS011;18686;53.084;8.872;2023-04-25T01:37:56;74.07;;;14.95;;
32186;SDS011;18686;53.084;8.872;2023-04-25T01:40:26;82.78;;;14.35;;
32186;SDS011;18686;53.084;8.872;2023-04-25T01:42:56;64.13;;;13.77;;
32186;SDS011;18686;53.084;8.872;2023-04-25T01:45:24;55.80;;;13.45;;
32186;SDS011;18686;53.084;8.872;2023-04-25T01:47:52;59.08;;;13.50;;
32186;SDS011;18686;53.084;8.872;2023-04-25T01:50:21;48.25;;;12.77;;
32186;SDS011;18686;53.084;8.872;2023-04-25T01:52:49;82.88;;;15.88;;
32186;SDS011;18686;53.084;8.872;2023-04-25T01:55:18;73.53;;;13.23;;
32186;SDS011;18686;53.084;8.872;2023-04-25T01:58:02;85.00;;;14.50;;
32186;SDS011;18686;53.084;8.872;2023-04-25T02:01:04;87.20;;;19.80;;
32186;SDS011;18686;53.084;8.872;2023-04-25T02:03:40;95.30;;;17.33;;
32186;SDS011;18686;53.084;8.872;2023-04-25T02:06:20;69.45;;;17.38;;
32186;SDS011;18686;53.084;8.872;2023-04-25T02:08:50;81.85;;;16.35;;
32186;SDS011;18686;53.084;8.872;2023-04-25T02:11:18;58.78;;;14.32;;
32186;SDS011;18686;53.084;8.872;2023-04-25T02:14:17;66.10;;;13.82;;
32186;SDS011;18686;53.084;8.872;2023-04-25T02:16:52;69.18;;;14.75;;
32186;SDS011;18686;53.084;8.872;2023-04-25T02:19:20;70.90;;;13.95;;
32186;SDS011;18686;53.084;8.872;2023-04-25T02:21:48;67.30;;;13.10;;
32186;SDS011;18686;53.084;8.872;2023-04-25T02:24:16;69.80;;;13.77;;
32186;SDS011;18686;53.084;8.872;2023-04-25T02:26:44;72.80;;;13.40;;
32186;SDS011;18686;53.084;8.872;2023-04-25T02:29:13;53.63;;;12.18;;
32186;SDS011;18686;53.084;8.872;2023-04-25T02:31:42;63.08;;;12.95;;
32186;SDS011;18686;53.084;8.872;2023-04-25T02:34:11;57.50;;;11.73;;
32186;SDS011;18686;53.084;8.872;2023-04-25T02:36:39;81.90;;;12.68;;
32186;SDS011;18686;53.084;8.872;2023-04-25T02:39:07;58.50;;;12.23;;
32186;SDS011;18686;53.084;8.872;2023-04-25T02:41:36;70.35;;;12.55;;
32186;SDS011;18686;53.084;8.872;2023-04-25T02:44:04;74.15;;;12.57;;
32186;SDS011;18686;53.084;8.872;2023-04-25T02:46:32;65.93;;;13.48;;
32186;SDS011;18686;53.084;8.872;2023-04-25T02:49:06;66.00;;;13.43;;
32186;SDS011;18686;53.084;8.872;2023-04-25T02:51:36;86.20;;;13.77;;
32186;SDS011;18686;53.084;8.872;2023-04-25T02:54:04;47.53;;;12.35;;
32186;SDS011;18686;53.084;8.872;2023-04-25T02:56:38;63.35;;;13.30;;
32186;SDS011;18686;53.084;8.872;2023-04-25T02:59:11;89.93;;;14.77;;
32186;SDS011;18686;53.084;8.872;2023-04-25T03:01:40;62.60;;;13.10;;
32186;SDS011;18686;53.084;8.872;2023-04-25T03:04:09;69.35;;;13.60;;
32186;SDS011;18686;53.084;8.872;2023-04-25T03:06:37;61.33;;;13.68;;
32186;SDS011;18686;53.084;8.872;2023-04-25T03:09:06;48.10;;;11.57;;
32186;SDS011;18686;53.084;8.872;2023-04-25T03:11:34;75.97;;;17.50;;
32186;SDS011;18686;53.084;8.872;2023-04-25T03:14:02;72.43;;;15.88;;
32186;SDS011;18686;53.084;8.872;2023-04-25T03:16:33;68.18;;;17.40;;
32186;SDS011;18686;53.084;8.872;2023-04-25T03:19:01;79.85;;;15.80;;
32186;SDS011;18686;53.084;8.872;2023-04-25T03:21:33;65.30;;;13.13;;
32186;SDS011;18686;53.084;8.872;2023-04-25T03:24:03;69.03;;;12.43;;
32186;SDS011;18686;53.084;8.872;2023-04-25T03:26:32;61.42;;;12.15;;
32186;SDS011;18686;53.084;8.872;2023-04-25T03:29:00;65.05;;;13.07;;
32186;SDS011;18686;53.084;8.872;2023-04-25T03:31:28;69.63;;;12.75;;
32186;SDS011;18686;53.084;8.872;2023-04-25T03:33:58;79.85;;;12.63;;
32186;SDS011;18686;53.084;8.872;2023-04-25T03:36:26;57.10;;;11.88;;
32186;SDS011;18686;53.084;8.872;2023-04-25T03:38:56;52.35;;;12.18;;
32186;SDS011;18686;53.084;8.872;2023-04-25T03:41:24;73.38;;;11.30;;
32186;SDS011;18686;53.084;8.872;2023-04-25T03:44:00;73.88;;;13.35;;
32186;SDS011;18686;53.084;8.872;2023-04-25T03:46:28;62.67;;;11.93;;
32186;SDS011;18686;53.084;8.872;2023-04-25T03:48:57;66.80;;;12.02;;
32186;SDS011;18686;53.084;8.872;2023-04-25T03:51:38;76.55;;;11.90;;
32186;SDS011;18686;53.084;8.872;2023-04-25T03:54:08;55.50;;;11.35;;
32186;SDS011;18686;53.084;8.872;2023-04-25T03:56:53;72.32;;;12.30;;
32186;SDS011;18686;53.084;8.872;2023-04-25T03:59:25;57.88;;;11.38;;
32186;SDS011;18686;53.084;8.872;2023-04-25T04:01:53;63.30;;;11.02;;
32186;SDS011;18686;53.084;8.872;2023-04-25T04:04:22;52.78;;;10.93;;
32186;SDS011;18686;53.084;8.872;2023-04-25T04:06:50;62.88;;;10.93;;
32186;SDS011;18686;53.084;8.872;2023-04-25T04:09:29;59.22;;;10.68;;
32186;SDS011;18686;53.084;8.872;2023-04-25T04:11:59;58.05;;;10.63;;
32186;SDS011;18686;53.084;8.872;2023-04-25T04:14:30;54.30;;;9.18;;
32186;SDS011;18686;53.084;8.872;2023-04-25T04:16:58;51.13;;;9.70;;
32186;SDS011;18686;53.084;8.872;2023-04-25T04:19:27;52.13;;;9.98;;
32186;SDS011;18686;53.084;8.872;2023-04-25T04:22:11;48.20;;;9.15;;
32186;SDS011;18686;53.084;8.872;2023-04-25T04:24:41;61.35;;;8.73;;
32186;SDS011;18686;53.084;8.872;2023-04-25T04:27:12;43.58;;;7.63;;
32186;SDS011;18686;53.084;8.872;2023-04-25T04:29:50;65.10;;;9.48;;
32186;SDS011;18686;53.084;8.872;2023-04-25T04:32:30;56.00;;;10.23;;
32186;SDS011;18686;53.084;8.872;2023-04-25T04:35:02;48.13;;;10.43;;
32186;SDS011;18686;53.084;8.872;2023-04-25T04:37:31;57.10;;;12.57;;
32186;SDS011;18686;53.084;8.872;2023-04-25T04:40:02;51.15;;;11.30;;
32186;SDS011;18686;53.084;8.872;2023-04-25T04:42:40;52.08;;;9.70;;
32186;SDS011;18686;53.084;8.872;2023-04-25T04:45:27;35.92;;;8.65;;
32186;SDS011;18686;53.084;8.872;2023-04-25T04:48:27;46.13;;;9.40;;
32186;SDS011;18686;53.084;8.872;2023-04-25T04:51:11;56.38;;;9.25;;
32186;SDS011;18686;53.084;8.872;2023-04-25T04:53:58;50.42;;;8.95;;
32186;SDS011;18686;53.084;8.872;2023-04-25T04:56:48;58.58;;;9.30;;
32186;SDS011;18686;53.084;8.872;2023-04-25T04:59:40;60.63;;;10.32;;
32186;SDS011;18686;53.084;8.872;2023-04-25T05:02:37;56.00;;;9.38;;
32186;SDS011;18686;53.084;8.872;2023-04-25T05:05:22;54.03;;;9.55;;
32186;SDS011;18686;53.084;8.872;2023-04-25T05:08:04;60.03;;;8.75;;
32186;SDS011;18686;53.084;8.872;2023-04-25T05:10:51;39.90;;;7.97;;
32186;SDS011;18686;53.084;8.872;2023-04-25T05:13:44;52.85;;;7.82;;
32186;SDS011;18686;53.084;8.872;2023-04-25T05:16:36;43.30;;;6.90;;
32186;SDS011;18686;53.084;8.872;2023-04-25T05:19:24;54.72;;;7.53;;
32186;SDS011;18686;53.084;8.872;2023-04-25T05:22:11;32.20;;;6.97;;
32186;SDS011;18686;53.084;8.872;2023-04-25T05:24:53;51.42;;;6.95;;
32186;SDS011;18686;53.084;8.872;2023-04-25T05:27:42;49.17;;;7.18;;
32186;SDS011;18686;53.084;8.872;2023-04-25T05:30:38;33.95;;;5.65;;
32186;SDS011;18686;53.084;8.872;2023-04-25T05:33:19;32.30;;;6.18;;
32186;SDS011;18686;53.084;8.872;2023-04-25T05:35:47;29.10;;;4.82;;
32186;SDS011;18686;53.084;8.872;2023-04-25T05:38:15;32.40;;;5.00;;
32186;SDS011;18686;53.084;8.872;2023-04-25T05:41:02;28.55;;;4.60;;
32186;SDS011;18686;53.084;8.872;2023-04-25T05:43:54;27.50;;;5.10;;
32186;SDS011;18686;53.084;8.872;2023-04-25T05:46:54;37.15;;;5.85;;
32186;SDS011;18686;53.084;8.872;2023-04-25T05:49:43;30.67;;;5.28;;
32186;SDS011;18686;53.084;8.872;2023-04-25T05:52:39;35.15;;;6.32;;
32186;SDS011;18686;53.084;8.872;2023-04-25T06:01:06;22.70;;;5.53;;
32186;SDS011;18686;53.084;8.872;2023-04-25T06:03:36;35.78;;;7.65;;
32186;SDS011;18686;53.084;8.872;2023-04-25T06:06:06;24.60;;;5.70;;
32186;SDS011;18686;53.084;8.872;2023-04-25T06:08:34;27.02;;;5.35;;
32186;SDS011;18686;53.084;8.872;2023-04-25T06:11:02;22.58;;;5.47;;
32186;SDS011;18686;53.084;8.872;2023-04-25T06:13:31;31.33;;;4.75;;
32186;SDS011;18686;53.084;8.872;2023-04-25T06:15:59;18.67;;;4.13;;
32186;SDS011;18686;53.084;8.872;2023-04-25T06:18:27;20.65;;;4.03;;
32186;SDS011;18686;53.084;8.872;2023-04-25T06:20:57;21.25;;;4.55;;
32186;SDS011;18686;53.084;8.872;2023-04-25T06:23:25;24.25;;;4.18;;
32186;SDS011;18686;53.084;8.872;2023-04-25T06:26:05;24.20;;;3.33;;
32186;SDS011;18686;53.084;8.872;2023-04-25T06:28:36;14.60;;;3.42;;
32186;SDS011;18686;53.084;8.872;2023-04-25T06:31:04;21.35;;;3.60;;
32186;SDS011;18686;53.084;8.872;2023-04-25T06:33:32;23.75;;;3.63;;
32186;SDS011;18686;53.084;8.872;2023-04-25T06:36:03;15.75;;;2.95;;
32186;SDS011;18686;53.084;8.872;2023-04-25T06:38:32;16.55;;;2.80;;
32186;SDS011;18686;53.084;8.872;2023-04-25T06:41:01;9.85;;;2.53;;
32186;SDS011;18686;53.084;8.872;2023-04-25T06:43:33;12.80;;;4.00;;
32186;SDS011;18686;53.084;8.872;2023-04-25T06:46:10;27.13;;;5.22;;
32186;SDS011;18686;53.084;8.872;2023-04-25T06:48:43;17.88;;;3.33;;
32186;SDS011;18686;53.084;8.872;2023-04-25T06:51:12;12.23;;;2.47;;
32186;SDS011;18686;53.084;8.872;2023-04-25T06:53:41;15.77;;;3.10;;
32186;SDS011;18686;53.084;8.872;2023-04-25T06:56:17;12.23;;;2.47;;
32186;SDS011;18686;53.084;8.872;2023-04-25T06:59:12;18.40;;;2.78;;
32186;SDS011;18686;53.084;8.872;2023-04-25T07:01:42;15.45;;;3.20;;
32186;SDS011;18686;53.084;8.872;2023-04-25T07:04:15;16.25;;;3.20;;
32186;SDS011;18686;53.084;8.872;2023-04-25T07:07:05;15.80;;;3.42;;
32186;SDS011;18686;53.084;8.872;2023-04-25T07:09:48;18.08;;;3.20;;
32186;SDS011;18686;53.084;8.872;2023-04-25T07:12:16;17.20;;;3.67;;
32186;SDS011;18686;53.084;8.872;2023-04-25T07:14:45;14.98;;;3.10;;
32186;SDS011;18686;53.084;8.872;2023-04-25T07:17:13;10.88;;;2.50;;
32186;SDS011;18686;53.084;8.872;2023-04-25T07:19:42;13.75;;;2.72;;
32186;SDS011;18686;53.084;8.872;2023-04-25T07:22:11;11.75;;;2.92;;
32186;SDS011;18686;53.084;8.872;2023-04-25T07:24:41;9.98;;;2.53;;
32186;SDS011;18686;53.084;8.872;2023-04-25T07:27:12;14.63;;;2.97;;
32186;SDS011;18686;53.084;8.872;2023-04-25T07:29:54;21.40;;;3.42;;
32186;SDS011;18686;53.084;8.872;2023-04-25T07:32:22;13.27;;;2.83;;
32186;SDS011;18686;53.084;8.872;2023-04-25T07:34:51;18.25;;;3.03;;
32186;SDS011;18686;53.084;8.872;2023-04-25T07:37:20;15.60;;;3.13;;
32186;SDS011;18686;53.084;8.872;2023-04-25T07:43:03;16.17;;;2.72;;
32186;SDS011;18686;53.084;8.872;2023-04-25T07:45:38;10.27;;;2.50;;
32186;SDS011;18686;53.084;8.872;2023-04-25T07:48:06;15.50;;;2.90;;
32186;SDS011;18686;53.084;8.872;2023-04-25T07:50:36;9.25;;;2.20;;
32186;SDS011;18686;53.084;8.872;2023-04-25T07:53:06;18.83;;;2.65;;
32186;SDS011;18686;53.084;8.872;2023-04-25T07:55:42;10.50;;;2.65;;
32186;SDS011;18686;53.084;8.872;2023-04-25T07:58:14;11.52;;;2.28;;
32186;SDS011;18686;53.084;8.872;2023-04-25T08:00:52;7.93;;;2.20;;
32186;SDS011;18686;53.084;8.872;2023-04-25T08:03:36;10.35;;;2.55;;
32186;SDS011;18686;53.084;8.872;2023-04-25T08:06:10;13.55;;;2.33;;
32186;SDS011;18686;53.084;8.872;2023-04-25T08:08:51;12.02;;;1.85;;
32186;SDS011;18686;53.084;8.872;2023-04-25T08:11:22;11.25;;;2.70;;
32186;SDS011;18686;53.084;8.872;2023-04-25T08:13:51;11.85;;;2.75;;
32186;SDS011;18686;53.084;8.872;2023-04-25T08:16:20;9.15;;;3.15;;
32186;SDS011;18686;53.084;8.872;2023-04-25T08:18:50;12.88;;;4.10;;
32186;SDS011;18686;53.084;8.872;2023-04-25T08:21:18;10.20;;;2.28;;
32186;SDS011;18686;53.084;8.872;2023-04-25T08:23:47;9.65;;;1.83;;
32186;SDS011;18686;53.084;8.872;2023-04-25T08:26:29;13.68;;;2.40;;
32186;SDS011;18686;53.084;8.872;2023-04-25T08:28:58;13.85;;;2.40;;
32186;SDS011;18686;53.084;8.872;2023-04-25T08:31:27;12.70;;;2.30;;
32186;SDS011;18686;53.084;8.872;2023-04-25T08:33:58;9.65;;;2.20;;
32186;SDS011;18686;53.084;8.872;2023-04-25T08:36:33;13.63;;;2.30;;
32186;SDS011;18686;53.084;8.872;2023-04-25T08:39:22;7.05;;;1.70;;
32186;SDS011;18686;53.084;8.872;2023-04-25T08:42:28;10.88;;;1.80;;
32186;SDS011;18686;53.084;8.872;2023-04-25T08:45:00;7.70;;;2.28;;
32186;SDS011;18686;53.084;8.872;2023-04-25T08:47:37;8.85;;;1.83;;
32186;SDS011;18686;53.084;8.872;2023-04-25T08:50:06;8.32;;;2.17;;
32186;SDS011;18686;53.084;8.872;2023-04-25T08:52:36;6.03;;;1.58;;
32186;SDS011;18686;53.084;8.872;2023-04-25T08:55:11;9.02;;;1.70;;
32186;SDS011;18686;53.084;8.872;2023-04-25T08:57:42;6.57;;;1.70;;
32186;SDS011;18686;53.084;8.872;2023-04-25T09:00:12;6.00;;;1.00;;
32186;SDS011;18686;53.084;8.872;2023-04-25T09:02:43;4.47;;;1.20;;
32186;SDS011;18686;53.084;8.872;2023-04-25T09:05:12;7.63;;;1.48;;
32186;SDS011;18686;53.084;8.872;2023-04-25T09:07:43;6.47;;;1.42;;
32186;SDS011;18686;53.084;8.872;2023-04-25T09:10:13;7.78;;;1.63;;
32186;SDS011;18686;53.084;8.872;2023-04-25T09:12:42;7.85;;;1.70;;
32186;SDS011;18686;53.084;8.872;2023-04-25T09:15:11;7.35;;;2.10;;
32186;SDS011;18686;53.084;8.872;2023-04-25T09:18:22;7.35;;;1.58;;
32186;SDS011;18686;53.084;8.872;2023-04-25T09:20:56;5.63;;;2.67;;
32186;SDS011;18686;53.084;8.872;2023-04-25T09:23:40;14.05;;;2.42;;
32186;SDS011;18686;53.084;8.872;2023-04-25T09:26:13;6.22;;;1.80;;
32186;SDS011;18686;53.084;8.872;2023-04-25T09:28:45;6.35;;;1.85;;
32186;SDS011;18686;53.084;8.872;2023-04-25T09:31:21;6.18;;;1.75;;
32186;SDS011;18686;53.084;8.872;2023-04-25T09:33:58;6.18;;;1.73;;
32186;SDS011;18686;53.084;8.872;2023-04-25T09:36:34;6.70;;;1.60;;
32186;SDS011;18686;53.084;8.872;2023-04-25T09:39:28;4.70;;;1.35;;
32186;SDS011;18686;53.084;8.872;2023-04-25T09:42:10;8.13;;;1.65;;
32186;SDS011;18686;53.084;8.872;2023-04-25T09:44:43;6.57;;;2.00;;
32186;SDS011;18686;53.084;8.872;2023-04-25T09:47:13;7.90;;;3.30;;
32186;SDS011;18686;53.084;8.872;2023-04-25T09:49:43;9.82;;;4.40;;
32186;SDS011;18686;53.084;8.872;2023-04-25T09:52:14;6.35;;;1.63;;
32186;SDS011;18686;53.084;8.872;2023-04-25T09:55:12;5.50;;;1.42;;
32186;SDS011;18686;53.084;8.872;2023-04-25T09:57:40;7.15;;;1.65;;
32186;SDS011;18686;53.084;8.872;2023-04-25T10:00:10;7.30;;;1.60;;
32186;SDS011;18686;53.084;8.872;2023-04-25T10:02:39;4.50;;;1.25;;
32186;SDS011;18686;53.084;8.872;2023-04-25T10:05:21;6.20;;;1.42;;
32186;SDS011;18686;53.084;8.872;2023-04-25T10:07:52;6.57;;;1.63;;
32186;SDS011;18686;53.084;8.872;2023-04-25T10:10:21;9.30;;;1.92;;
32186;SDS011;18686;53.084;8.872;2023-04-25T10:12:52;5.63;;;1.20;;
32186;SDS011;18686;53.084;8.872;2023-04-25T10:15:22;5.28;;;1.90;;
32186;SDS011;18686;53.084;8.872;2023-04-25T10:17:51;8.80;;;3.42;;
32186;SDS011;18686;53.084;8.872;2023-04-25T10:20:20;4.25;;;1.50;;
32186;SDS011;18686;53.084;8.872;2023-04-25T10:22:49;4.50;;;1.10;;
32186;SDS011;18686;53.084;8.872;2023-04-25T10:25:22;5.13;;;1.08;;
32186;SDS011;18686;53.084;8.872;2023-04-25T10:27:51;5.55;;;1.00;;
32186;SDS011;18686;53.084;8.872;2023-04-25T10:30:19;4.80;;;1.10;;
32186;SDS011;18686;53.084;8.872;2023-04-25T10:32:49;3.33;;;1.25;;
32186;SDS011;18686;53.084;8.872;2023-04-25T10:35:18;4.53;;;1.10;;
32186;SDS011;18686;53.084;8.872;2023-04-25T10:37:58;4.80;;;1.30;;
32186;SDS011;18686;53.084;8.872;2023-04-25T10:40:27;6.60;;;1.40;;
32186;SDS011;18686;53.084;8.872;2023-04-25T10:42:56;8.45;;;1.50;;
32186;SDS011;18686;53.084;8.872;2023-04-25T10:48:32;3.83;;;1.25;;
32186;SDS011;18686;53.084;8.872;2023-04-25T10:51:08;4.32;;;1.50;;
32186;SDS011;18686;53.084;8.872;2023-04-25T10:53:36;5.63;;;1.17;;
32186;SDS011;18686;53.084;8.872;2023-04-25T10:56:09;4.05;;;1.17;;
32186;SDS011;18686;53.084;8.872;2023-04-25T10:58:43;10.80;;;1.65;;
32186;SDS011;18686;53.084;8.872;2023-04-25T11:01:12;8.13;;;2.90;;
32186;SDS011;18686;53.084;8.872;2023-04-25T11:03:43;4.75;;;1.90;;
32186;SDS011;18686;53.084;8.872;2023-04-25T11:06:15;4.93;;;1.55;;
32186;SDS011;18686;53.084;8.872;2023-04-25T11:08:50;4.50;;;1.45;;
32186;SDS011;18686;53.084;8.872;2023-04-25T11:11:19;4.53;;;1.42;;
32186;SDS011;18686;53.084;8.872;2023-04-25T11:13:47;5.22;;;1.60;;
32186;SDS011;18686;53.084;8.872;2023-04-25T11:16:17;6.65;;;1.70;;
32186;SDS011;18686;53.084;8.872;2023-04-25T11:18:56;9.32;;;1.67;;
32186;SDS011;18686;53.084;8.872;2023-04-25T11:21:25;5.93;;;1.80;;
32186;SDS011;18686;53.084;8.872;2023-04-25T11:23:54;6.40;;;1.83;;
32186;SDS011;18686;53.084;8.872;2023-04-25T11:26:24;5.85;;;1.63;;
32186;SDS011;18686;53.084;8.872;2023-04-25T11:28:56;5.57;;;1.90;;
32186;SDS011;18686;53.084;8.872;2023-04-25T11:31:25;5.55;;;1.83;;
32186;SDS011;18686;53.084;8.872;2023-04-25T11:33:56;5.85;;;1.42;;
32186;SDS011;18686;53.084;8.872;2023-04-25T11:36:24;5.97;;;1.58;;
32186;SDS011;18686;53.084;8.872;2023-04-25T11:38:54;4.45;;;1.40;;
32186;SDS011;18686;53.084;8.872;2023-04-25T11:41:22;10.07;;;1.85;;
32186;SDS011;18686;53.084;8.872;2023-04-25T11:43:51;4.40;;;1.17;;
32186;SDS011;18686;53.084;8.872;2023-04-25T11:46:21;7.95;;;1.13;;
32186;SDS011;18686;53.084;8.872;2023-04-25T11:48:49;4.13;;;1.35;;
32186;SDS011;18686;53.084;8.872;2023-04-25T11:51:20;7.78;;;3.30;;
32186;SDS011;18686;53.084;8.872;2023-04-25T11:53:48;5.53;;;1.50;;
32186;SDS011;18686;53.084;8.872;2023-04-25T11:56:20;5.00;;;1.50;;
32186;SDS011;18686;53.084;8.872;2023-04-25T11:58:55;4.45;;;1.10;;
32186;SDS011;18686;53.084;8.872;2023-04-25T12:01:27;4.32;;;1.20;;
32186;SDS011;18686;53.084;8.872;2023-04-25T12:04:12;5.00;;;1.30;;
32186;SDS011;18686;53.084;8.872;2023-04-25T12:06:43;5.68;;;1.45;;
32186;SDS011;18686;53.084;8.872;2023-04-25T12:09:14;9.57;;;1.63;;
32186;SDS011;18686;53.084;8.872;2023-04-25T12:11:46;7.07;;;1.42;;
32186;SDS011;18686;53.084;8.872;2023-04-25T12:14:21;4.32;;;1.20;;
32186;SDS011;18686;53.084;8.872;2023-04-25T12:16:51;4.65;;;1.20;;
32186;SDS011;18686;53.084;8.872;2023-04-25T12:19:19;4.57;;;1.30;;
32186;SDS011;18686;53.084;8.872;2023-04-25T12:21:50;3.00;;;0.95;;
32186;SDS011;18686;53.084;8.872;2023-04-25T12:24:21;5.45;;;1.20;;
32186;SDS011;18686;53.084;8.872;2023-04-25T12:26:52;6.28;;;1.38;;
32186;SDS011;18686;53.084;8.872;2023-04-25T12:29:21;5.38;;;1.00;;
32186;SDS011;18686;53.084;8.872;2023-04-25T12:31:57;5.40;;;1.13;;
32186;SDS011;18686;53.084;8.872;2023-04-25T12:34:26;5.53;;;1.48;;
32186;SDS011;18686;53.084;8.872;2023-04-25T12:36:55;5.70;;;1.23;;
32186;SDS011;18686;53.084;8.872;2023-04-25T12:39:24;4.25;;;1.40;;
32186;SDS011;18686;53.084;8.872;2023-04-25T12:41:52;3.03;;;1.20;;
32186;SDS011;18686;53.084;8.872;2023-04-25T12:44:20;6.03;;;1.90;;
32186;SDS011;18686;53.084;8.872;2023-04-25T12:46:49;4.72;;;1.30;;
32186;SDS011;18686;53.084;8.872;2023-04-25T12:49:17;5.22;;;1.15;;
32186;SDS011;18686;53.084;8.872;2023-04-25T12:51:45;3.28;;;1.48;;
32186;SDS011;18686;53.084;8.872;2023-04-25T12:54:15;4.28;;;1.13;;
32186;SDS011;18686;53.084;8.872;2023-04-25T12:56:44;3.38;;;0.95;;
32186;SDS011;18686;53.084;8.872;2023-04-25T12:59:12;3.42;;;1.10;;
32186;SDS011;18686;53.084;8.872;2023-04-25T13:01:40;4.00;;;1.20;;
32186;SDS011;18686;53.084;8.872;2023-04-25T13:04:09;6.20;;;1.70;;
32186;SDS011;18686;53.084;8.872;2023-04-25T13:06:37;4.35;;;1.33;;
32186;SDS011;18686;53.084;8.872;2023-04-25T13:09:05;3.03;;;1.20;;
32186;SDS011;18686;53.084;8.872;2023-04-25T13:11:36;4.68;;;1.50;;
32186;SDS011;18686;53.084;8.872;2023-04-25T13:14:04;6.22;;;2.17;;
32186;SDS011;18686;53.084;8.872;2023-04-25T13:16:32;6.57;;;1.98;;
32186;SDS011;18686;53.084;8.872;2023-04-25T13:19:01;5.80;;;1.35;;
32186;SDS011;18686;53.084;8.872;2023-04-25T13:21:29;5.03;;;0.90;;
32186;SDS011;18686;53.084;8.872;2023-04-25T13:23:58;3.53;;;1.02;;
32186;SDS011;18686;53.084;8.872;2023-04-25T13:26:27;4.28;;;1.08;;
32186;SDS011;18686;53.084;8.872;2023-04-25T13:28:56;7.35;;;1.20;;
32186;SDS011;18686;53.084;8.872;2023-04-25T13:31:24;2.92;;;1.00;;
32186;SDS011;18686;53.084;8.872;2023-04-25T13:33:52;5.30;;;1.13;;
32186;SDS011;18686;53.084;8.872;2023-04-25T13:36:20;3.38;;;1.00;;
32186;SDS011;18686;53.084;8.872;2023-04-25T13:38:49;4.10;;;0.82;;
32186;SDS011;18686;53.084;8.872;2023-04-25T13:41:17;5.03;;;1.00;;
32186;SDS011;18686;53.084;8.872;2023-04-25T13:43:45;7.63;;;1.83;;
32186;SDS011;18686;53.084;8.872;2023-04-25T13:46:16;2.78;;;0.93;;
32186;SDS011;18686;53.084;8.872;2023-04-25T13:48:47;4.15;;;1.30;;
32186;SDS011;18686;53.084;8.872;2023-04-25T13:51:21;4.13;;;1.10;;
32186;SDS011;18686;53.084;8.872;2023-04-25T13:53:49;4.30;;;1.23;;
32186;SDS011;18686;53.084;8.872;2023-04-25T13:56:17;4.50;;;1.35;;
32186;SDS011;18686;53.084;8.872;2023-04-25T13:58:46;4.95;;;1.25;;
32186;SDS011;18686;53.084;8.872;2023-04-25T14:01:14;6.22;;;2.92;;
32186;SDS011;18686;53.084;8.872;2023-04-25T14:03:44;2.45;;;0.90;;
32186;SDS011;18686;53.084;8.872;2023-04-25T14:06:12;3.10;;;1.20;;
32186;SDS011;18686;53.084;8.872;2023-04-25T14:08:47;7.00;;;1.23;;
32186;SDS011;18686;53.084;8.872;2023-04-25T14:11:15;6.30;;;1.40;;
32186;SDS011;18686;53.084;8.872;2023-04-25T14:13:44;3.55;;;0.90;;
32186;SDS011;18686;53.084;8.872;2023-04-25T14:16:14;3.53;;;1.27;;
32186;SDS011;18686;53.084;8.872;2023-04-25T14:18:44;4.68;;;1.35;;
32186;SDS011;18686;53.084;8.872;2023-04-25T14:21:12;3.50;;;1.15;;
32186;SDS011;18686;53.084;8.872;2023-04-25T14:23:40;4.05;;;1.42;;
32186;SDS011;18686;53.084;8.872;2023-04-25T14:28:51;4.95;;;1.38;;
32186;SDS011;18686;53.084;8.872;2023-04-25T14:31:19;3.28;;;1.52;;
32186;SDS011;18686;53.084;8.872;2023-04-25T14:33:49;3.47;;;1.10;;
32186;SDS011;18686;53.084;8.872;2023-04-25T14:36:18;5.72;;;2.60;;
32186;SDS011;18686;53.084;8.872;2023-04-25T14:38:46;7.13;;;1.63;;
32186;SDS011;18686;53.084;8.872;2023-04-25T14:41:14;6.93;;;1.50;;
32186;SDS011;18686;53.084;8.872;2023-04-25T14:43:43;4.43;;;1.40;;
32186;SDS011;18686;53.084;8.872;2023-04-25T14:46:11;8.63;;;1.50;;
32186;SDS011;18686;53.084;8.872;2023-04-25T14:48:39;3.45;;;1.05;;
32186;SDS011;18686;53.084;8.872;2023-04-25T14:51:09;7.72;;;3.40;;
32186;SDS011;18686;53.084;8.872;2023-04-25T14:53:37;5.20;;;1.63;;
32186;SDS011;18686;53.084;8.872;2023-04-25T14:56:06;6.25;;;1.65;;
32186;SDS011;18686;53.084;8.872;2023-04-25T14:58:35;4.90;;;1.20;;
32186;SDS011;18686;53.084;8.872;2023-04-25T15:01:04;5.82;;;1.23;;
32186;SDS011;18686;53.084;8.872;2023-04-25T15:03:33;7.00;;;1.15;;
32186;SDS011;18686;53.084;8.872;2023-04-25T15:06:01;6.00;;;1.40;;
32186;SDS011;18686;53.084;8.872;2023-04-25T15:08:31;3.88;;;1.02;;
32186;SDS011;18686;53.084;8.872;2023-04-25T15:10:59;8.23;;;1.20;;
32186;SDS011;18686;53.084;8.872;2023-04-25T15:13:28;4.43;;;1.40;;
32186;SDS011;18686;53.084;8.872;2023-04-25T15:15:56;5.53;;;1.27;;
32186;SDS011;18686;53.084;8.872;2023-04-25T15:18:24;4.88;;;1.35;;
32186;SDS011;18686;53.084;8.872;2023-04-25T15:20:53;5.25;;;1.92;;